Time;durP1;ratioP1;P1;durP2;ratioP2;P2;SDS_P1;SDS_P2;PMS_P1;PMS_P2;Temp;Humidity;BMP_temperature;BMP_pressure;BME280_temperature;BME280_humidity;BME280_pressure;Samples;Min_cycle;Max_cycle;Signal;HPM_P1;HPM_P2
2022/12/30 00:00:46;;;;;;;3.95;1.27;;;;;;;;;;5032253;28;20373;-76
2022/12/30 00:03:12;;;;;;;2.53;0.95;;;;;;;;;;5032274;28;20071;-75
2022/12/30 00:05:38;;;;;;;3.80;1.60;;;;;;;;;;5031819;28;20029;-75
2022/12/30 00:08:45;;;;;;;10.60;2.22;;;;;;;;;;5030619;28;20037;-75
2022/12/30 00:10:50;;;;;;;2.35;1.33;;;;;;;;;;5031490;28;20174;-75
2022/12/30 00:35:16;;;;;;;3.85;1.17;;;;;;;;;;5031845;28;20041;-77
2022/12/30 00:37:42;;;;;;;4.60;1.20;;;;;;;;;;5030453;28;20100;-77
2022/12/30 00:40:08;;;;;;;4.82;1.10;;;;;;;;;;5013225;28;20512;-76
2022/12/30 00:45:19;;;;;;;5.25;1.65;;;;;;;;;;5032213;28;20040;-76
2022/12/30 00:47:45;;;;;;;4.97;1.60;;;;;;;;;;5031605;28;20292;-76
2022/12/30 00:58:27;;;;;;;4.75;1.25;;;;;;;;;;5015440;28;20024;-76
2022/12/30 01:00:53;;;;;;;5.40;1.67;;;;;;;;;;5030813;28;20075;-76
2022/12/30 01:03:19;;;;;;;4.10;0.98;;;;;;;;;;5030655;28;20503;-76
2022/12/30 01:05:45;;;;;;;6.28;1.35;;;;;;;;;;5030656;28;20055;-76
2022/12/30 01:08:11;;;;;;;4.50;1.55;;;;;;;;;;5012043;28;20403;-76
2022/12/30 01:10:41;;;;;;;4.47;1.40;;;;;;;;;;5030516;28;20575;-77
2022/12/30 01:13:07;;;;;;;4.53;1.23;;;;;;;;;;5030500;28;20025;-76
2022/12/30 01:15:34;;;;;;;4.85;1.35;;;;;;;;;;5030654;28;20450;-77
2022/12/30 01:18:00;;;;;;;7.20;1.08;;;;;;;;;;5029596;28;20018;-77
2022/12/30 01:20:27;;;;;;;5.03;1.52;;;;;;;;;;5013911;28;20035;-77
2022/12/30 01:22:53;;;;;;;7.32;1.75;;;;;;;;;;5034323;28;20021;-77
2022/12/30 01:25:19;;;;;;;7.32;1.33;;;;;;;;;;5034335;28;20033;-77
2022/12/30 01:27:50;;;;;;;5.38;1.38;;;;;;;;;;5033910;28;20495;-77
2022/12/30 01:30:16;;;;;;;8.83;1.60;;;;;;;;;;5018241;28;20048;-77
2022/12/30 01:32:42;;;;;;;4.93;1.92;;;;;;;;;;5034322;28;20030;-77
2022/12/30 01:35:08;;;;;;;3.53;1.52;;;;;;;;;;5034719;28;20022;-78
2022/12/30 01:37:34;;;;;;;6.15;1.30;;;;;;;;;;5033624;28;20387;-78
2022/12/30 01:40:00;;;;;;;6.15;1.40;;;;;;;;;;5034171;28;20022;-77
2022/12/30 01:42:27;;;;;;;3.28;1.25;;;;;;;;;;5016229;28;20028;-76
2022/12/30 01:45:02;;;;;;;4.38;1.75;;;;;;;;;;5034423;28;20399;-77
2022/12/30 01:47:31;;;;;;;3.40;1.33;;;;;;;;;;5033796;28;20028;-77
2022/12/30 01:50:18;;;;;;;8.02;1.35;;;;;;;;;;5033779;28;20043;-76
2022/12/30 01:52:48;;;;;;;4.95;1.67;;;;;;;;;;5021910;28;20076;-77
2022/12/30 01:55:39;;;;;;;7.60;1.52;;;;;;;;;;5034685;28;20029;-77
2022/12/30 01:58:09;;;;;;;7.68;1.35;;;;;;;;;;5034845;28;20044;-78
2022/12/30 02:00:35;;;;;;;6.90;1.13;;;;;;;;;;5034421;28;20492;-76
2022/12/30 02:03:02;;;;;;;6.85;1.67;;;;;;;;;;5033759;28;20021;-78
2022/12/30 02:05:31;;;;;;;9.00;1.90;;;;;;;;;;5034037;28;20018;-77
2022/12/30 02:08:09;;;;;;;8.45;1.83;;;;;;;;;;5032581;28;20025;-78
2022/12/30 02:10:37;;;;;;;4.72;1.25;;;;;;;;;;5033652;28;20116;-77
2022/12/30 02:13:03;;;;;;;6.70;1.17;;;;;;;;;;5034485;28;20017;-78
2022/12/30 02:15:34;;;;;;;6.88;1.35;;;;;;;;;;5035209;28;20017;-76
2022/12/30 02:18:05;;;;;;;5.15;1.48;;;;;;;;;;5016758;28;20122;-77
2022/12/30 02:20:42;;;;;;;2.97;1.15;;;;;;;;;;5033741;28;20084;-77
2022/12/30 02:23:08;;;;;;;4.72;1.08;;;;;;;;;;5025662;28;20483;-78
2022/12/30 02:25:43;;;;;;;7.63;1.50;;;;;;;;;;5036666;28;20040;-77
2022/12/30 02:28:28;;;;;;;4.82;1.52;;;;;;;;;;5039796;28;20100;-77
2022/12/30 02:31:12;;;;;;;5.88;1.85;;;;;;;;;;5043239;28;20030;-78
2022/12/30 02:33:50;;;;;;;5.30;1.42;;;;;;;;;;5043078;28;20021;-77
2022/12/30 02:36:22;;;;;;;7.68;1.80;;;;;;;;;;5007879;28;20018;-79
2022/12/30 02:38:53;;;;;;;7.65;1.67;;;;;;;;;;5039043;28;20025;-78
2022/12/30 02:44:36;;;;;;;6.95;1.55;;;;;;;;;;5021620;28;20056;-77
2022/12/30 02:47:14;;;;;;;7.47;1.45;;;;;;;;;;5037933;28;20082;-77
2022/12/30 02:49:41;;;;;;;3.47;1.48;;;;;;;;;;5036447;28;20091;-77
2022/12/30 02:52:18;;;;;;;13.35;1.88;;;;;;;;;;5033365;28;20061;-77
2022/12/30 02:54:48;;;;;;;6.43;1.50;;;;;;;;;;5033495;28;20049;-76
2022/12/30 02:57:34;;;;;;;6.57;1.98;;;;;;;;;;5033073;28;20068;-77
2022/12/30 03:05:47;;;;;;;4.68;1.20;;;;;;;;;;5032582;28;20036;-76
2022/12/30 03:08:26;;;;;;;7.63;1.88;;;;;;;;;;5032826;28;20132;-77
2022/12/30 03:11:16;;;;;;;7.93;1.95;;;;;;;;;;5014714;28;20555;-77
2022/12/30 03:13:48;;;;;;;4.10;1.75;;;;;;;;;;5022641;28;20034;-76
2022/12/30 03:16:17;;;;;;;7.95;1.60;;;;;;;;;;5032073;28;20018;-77
2022/12/30 03:18:44;;;;;;;6.13;1.45;;;;;;;;;;5031418;28;20095;-77
2022/12/30 03:21:11;;;;;;;3.63;1.30;;;;;;;;;;5032026;28;20033;-78
2022/12/30 03:29:12;;;;;;;7.53;1.40;;;;;;;;;;5031379;28;20056;-77
2022/12/30 03:31:39;;;;;;;6.55;1.70;;;;;;;;;;5031751;28;20021;-77
2022/12/30 03:34:05;;;;;;;6.50;1.88;;;;;;;;;;5031904;28;20079;-77
2022/12/30 03:36:33;;;;;;;4.00;1.15;;;;;;;;;;5031803;28;20018;-78
2022/12/30 03:39:07;;;;;;;5.93;1.63;;;;;;;;;;5031063;28;20025;-77
2022/12/30 03:41:34;;;;;;;5.82;1.63;;;;;;;;;;5031632;28;20029;-76
2022/12/30 03:44:00;;;;;;;4.63;1.60;;;;;;;;;;5030516;28;20036;-78
2022/12/30 03:46:31;;;;;;;7.47;1.67;;;;;;;;;;5013786;28;20022;-77
2022/12/30 03:48:57;;;;;;;5.75;1.88;;;;;;;;;;5031035;28;20032;-78
2022/12/30 03:51:23;;;;;;;7.88;2.05;;;;;;;;;;5031588;28;20045;-76
2022/12/30 03:53:49;;;;;;;5.25;1.30;;;;;;;;;;5033010;28;20030;-77
2022/12/30 03:56:15;;;;;;;5.28;1.65;;;;;;;;;;5027588;28;20017;-76
2022/12/30 03:58:42;;;;;;;7.35;1.58;;;;;;;;;;5013412;28;20026;-77
2022/12/30 04:01:08;;;;;;;5.72;1.50;;;;;;;;;;5013477;28;20025;-77
2022/12/30 04:03:34;;;;;;;5.60;1.25;;;;;;;;;;5031324;28;20022;-77
2022/12/30 04:06:00;;;;;;;8.13;2.08;;;;;;;;;;5031195;28;20029;-76
2022/12/30 04:08:26;;;;;;;5.00;1.45;;;;;;;;;;5030533;28;20435;-77
2022/12/30 04:10:52;;;;;;;5.00;1.75;;;;;;;;;;5031115;28;20074;-76
2022/12/30 04:13:18;;;;;;;9.43;1.95;;;;;;;;;;5031165;28;20305;-77
2022/12/30 04:15:49;;;;;;;10.73;1.92;;;;;;;;;;5031241;28;20032;-77
2022/12/30 04:18:15;;;;;;;8.73;1.98;;;;;;;;;;5014096;28;20022;-77
2022/12/30 04:20:41;;;;;;;9.25;1.58;;;;;;;;;;5031011;28;20106;-77
2022/12/30 04:23:07;;;;;;;8.48;2.25;;;;;;;;;;5031132;28;20376;-76
2022/12/30 04:25:33;;;;;;;8.43;1.60;;;;;;;;;;5031182;28;20105;-76
2022/12/30 04:27:59;;;;;;;8.75;1.45;;;;;;;;;;5030014;28;20403;-77
2022/12/30 04:30:25;;;;;;;6.15;1.63;;;;;;;;;;5030807;28;20032;-76
2022/12/30 04:32:51;;;;;;;5.90;1.75;;;;;;;;;;5031025;28;20025;-77
2022/12/30 04:35:17;;;;;;;3.03;1.15;;;;;;;;;;5031003;28;20025;-77
2022/12/30 04:37:43;;;;;;;4.32;0.98;;;;;;;;;;5030258;28;20018;-76
2022/12/30 04:40:09;;;;;;;6.05;1.83;;;;;;;;;;5030944;28;20021;-77
2022/12/30 04:42:35;;;;;;;4.85;1.73;;;;;;;;;;5030523;28;20269;-77
2022/12/30 04:45:01;;;;;;;8.95;1.85;;;;;;;;;;5030805;28;20365;-77
2022/12/30 04:47:29;;;;;;;9.27;1.88;;;;;;;;;;5030514;28;20387;-77
2022/12/30 04:49:56;;;;;;;7.28;1.73;;;;;;;;;;5030595;28;20075;-76
2022/12/30 04:52:22;;;;;;;5.00;1.40;;;;;;;;;;5030987;28;20400;-78
2022/12/30 04:54:48;;;;;;;6.55;1.52;;;;;;;;;;5031948;28;20100;-77
2022/12/30 04:57:14;;;;;;;7.55;1.50;;;;;;;;;;5036831;28;20088;-77
2022/12/30 04:59:40;;;;;;;7.35;1.77;;;;;;;;;;5019176;28;20026;-76
2022/12/30 05:02:06;;;;;;;6.53;1.23;;;;;;;;;;5037245;28;20105;-77
2022/12/30 05:04:32;;;;;;;7.47;1.80;;;;;;;;;;5037386;28;20023;-78
2022/12/30 05:06:58;;;;;;;7.80;1.92;;;;;;;;;;5037198;28;20035;-76
2022/12/30 05:09:24;;;;;;;5.75;1.70;;;;;;;;;;5036535;28;20040;-79
2022/12/30 05:11:50;;;;;;;10.65;2.17;;;;;;;;;;5036919;28;20109;-75
2022/12/30 05:14:16;;;;;;;5.13;1.65;;;;;;;;;;5037106;28;20105;-77
2022/12/30 05:16:42;;;;;;;5.95;1.63;;;;;;;;;;5037195;28;20376;-77
2022/12/30 05:19:08;;;;;;;9.90;1.67;;;;;;;;;;5036401;28;20479;-77
2022/12/30 05:21:35;;;;;;;7.45;2.15;;;;;;;;;;5037056;28;20029;-77
2022/12/30 05:26:45;;;;;;;5.30;1.48;;;;;;;;;;5037460;28;20083;-77
2022/12/30 05:29:11;;;;;;;5.18;1.80;;;;;;;;;;5036293;28;20026;-77
2022/12/30 05:31:37;;;;;;;5.15;1.73;;;;;;;;;;5037052;28;20109;-75
2022/12/30 05:34:03;;;;;;;8.18;1.27;;;;;;;;;;5036770;28;20159;-76
2022/12/30 05:36:29;;;;;;;8.15;1.42;;;;;;;;;;5019277;28;20140;-77
2022/12/30 05:38:55;;;;;;;10.15;2.45;;;;;;;;;;5036155;28;20133;-77
2022/12/30 05:41:21;;;;;;;7.75;2.35;;;;;;;;;;5036948;28;20049;-77
2022/12/30 05:43:48;;;;;;;6.82;2.00;;;;;;;;;;5037478;28;20121;-77
2022/12/30 05:46:14;;;;;;;7.55;1.35;;;;;;;;;;5037246;28;20383;-77
2022/12/30 05:48:41;;;;;;;8.88;2.70;;;;;;;;;;5036475;28;20399;-77
2022/12/30 05:51:07;;;;;;;8.50;1.70;;;;;;;;;;5038134;28;20440;-77
2022/12/30 05:53:33;;;;;;;7.97;2.22;;;;;;;;;;5037279;28;20017;-77
2022/12/30 05:55:59;;;;;;;3.97;1.45;;;;;;;;;;5037602;28;20041;-76
2022/12/30 05:58:25;;;;;;;6.47;1.83;;;;;;;;;;5036478;28;20020;-76
2022/12/30 06:00:51;;;;;;;7.13;1.58;;;;;;;;;;5037213;28;20029;-75
2022/12/30 06:03:17;;;;;;;8.98;1.83;;;;;;;;;;5038126;28;20033;-75
2022/12/30 06:05:43;;;;;;;7.93;2.15;;;;;;;;;;5038784;28;20030;-76
2022/12/30 06:08:10;;;;;;;7.78;1.80;;;;;;;;;;5035991;28;20670;-77
2022/12/30 06:10:36;;;;;;;6.07;2.25;;;;;;;;;;5033563;28;20030;-76
2022/12/30 06:13:02;;;;;;;8.43;3.10;;;;;;;;;;5033686;28;20025;-76
2022/12/30 06:15:28;;;;;;;8.38;2.30;;;;;;;;;;5015865;28;20407;-76
2022/12/30 06:17:54;;;;;;;7.25;1.58;;;;;;;;;;5032523;28;20021;-76
2022/12/30 06:20:20;;;;;;;7.82;1.70;;;;;;;;;;5052261;22;20034;-76
2022/12/30 06:22:46;;;;;;;3.40;1.45;;;;;;;;;;5013786;28;20397;-73
2022/12/30 06:25:12;;;;;;;8.82;2.03;;;;;;;;;;5002723;28;20327;-74
2022/12/30 06:27:38;;;;;;;9.07;2.78;;;;;;;;;;4990591;28;20120;-74
2022/12/30 06:30:04;;;;;;;7.30;2.28;;;;;;;;;;4997386;28;20377;-74
2022/12/30 06:32:31;;;;;;;6.75;2.15;;;;;;;;;;5007973;28;20106;-75
2022/12/30 06:34:57;;;;;;;7.40;1.52;;;;;;;;;;5003364;28;20022;-74
2022/12/30 06:37:23;;;;;;;6.28;1.63;;;;;;;;;;5000997;28;20029;-74
2022/12/30 06:39:49;;;;;;;7.68;1.67;;;;;;;;;;5012193;28;20022;-76
2022/12/30 06:42:15;;;;;;;6.55;1.75;;;;;;;;;;4997326;28;20502;-73
2022/12/30 06:44:41;;;;;;;7.65;1.65;;;;;;;;;;5005826;28;20022;-73
2022/12/30 06:47:07;;;;;;;7.85;2.20;;;;;;;;;;5003439;28;20481;-72
2022/12/30 06:49:33;;;;;;;5.97;1.85;;;;;;;;;;4981370;28;20030;-74
2022/12/30 06:51:59;;;;;;;5.47;1.70;;;;;;;;;;4991970;28;20033;-74
2022/12/30 06:54:25;;;;;;;4.43;1.63;;;;;;;;;;4998048;28;20028;-74
2022/12/30 06:56:51;;;;;;;7.38;1.90;;;;;;;;;;5001924;28;20030;-73
2022/12/30 06:59:17;;;;;;;10.80;2.45;;;;;;;;;;4982887;28;20259;-75
2022/12/30 07:01:43;;;;;;;5.32;1.60;;;;;;;;;;5008572;28;20022;-75
2022/12/30 07:04:09;;;;;;;6.47;1.63;;;;;;;;;;4996950;28;20037;-75
2022/12/30 07:06:35;;;;;;;7.60;1.98;;;;;;;;;;5006633;28;20349;-75
2022/12/30 07:09:01;;;;;;;5.40;2.15;;;;;;;;;;5002579;28;20435;-74
2022/12/30 07:11:27;;;;;;;8.60;2.30;;;;;;;;;;4981995;28;20030;-75
2022/12/30 07:13:53;;;;;;;8.63;1.90;;;;;;;;;;5009631;28;20495;-74
2022/12/30 07:16:19;;;;;;;8.18;2.05;;;;;;;;;;4997020;28;20022;-74
2022/12/30 07:18:45;;;;;;;11.38;2.20;;;;;;;;;;5004628;28;20339;-74
2022/12/30 07:21:11;;;;;;;6.95;2.10;;;;;;;;;;4982160;28;20113;-73
2022/12/30 07:23:37;;;;;;;6.70;2.08;;;;;;;;;;5007880;28;20032;-74
2022/12/30 07:26:03;;;;;;;10.02;2.50;;;;;;;;;;4996191;28;20511;-73
2022/12/30 07:28:29;;;;;;;7.55;1.42;;;;;;;;;;5006165;28;20109;-73
2022/12/30 07:30:55;;;;;;;9.40;2.08;;;;;;;;;;5001797;28;20081;-73
2022/12/30 07:33:21;;;;;;;7.93;1.83;;;;;;;;;;4999772;28;20022;-71
2022/12/30 07:35:47;;;;;;;6.90;1.95;;;;;;;;;;4991150;28;20025;-73
2022/12/30 07:38:13;;;;;;;10.40;2.03;;;;;;;;;;4978252;28;20022;-73
2022/12/30 07:40:39;;;;;;;6.72;2.05;;;;;;;;;;5005978;28;20547;-73
2022/12/30 07:43:05;;;;;;;7.45;1.77;;;;;;;;;;5003974;28;20022;-72
2022/12/30 07:45:31;;;;;;;7.03;2.00;;;;;;;;;;4998890;28;20030;-69
2022/12/30 07:48:00;;;;;;;8.50;2.10;;;;;;;;;;5008924;28;20022;-74
2022/12/30 07:50:26;;;;;;;8.13;2.15;;;;;;;;;;4998149;28;20034;-74
2022/12/30 07:52:52;;;;;;;8.63;1.92;;;;;;;;;;4986236;28;20073;-73
2022/12/30 07:55:18;;;;;;;10.98;1.70;;;;;;;;;;4996844;28;20057;-73
2022/12/30 07:57:44;;;;;;;6.78;1.25;;;;;;;;;;5007358;28;20025;-74
2022/12/30 08:00:12;;;;;;;7.22;1.90;;;;;;;;;;4995470;28;20404;-76
2022/12/30 08:02:39;;;;;;;6.30;1.95;;;;;;;;;;4987674;28;20488;-73
2022/12/30 08:05:06;;;;;;;7.18;1.75;;;;;;;;;;4985293;28;20053;-74
2022/12/30 08:07:32;;;;;;;5.75;1.90;;;;;;;;;;4997358;28;20619;-73
2022/12/30 08:09:58;;;;;;;9.13;2.28;;;;;;;;;;5008388;28;20057;-73
2022/12/30 08:12:24;;;;;;;6.85;1.98;;;;;;;;;;4996673;28;20491;-73
2022/12/30 08:14:50;;;;;;;6.55;2.50;;;;;;;;;;5003413;28;20025;-73
2022/12/30 08:17:16;;;;;;;5.07;1.55;;;;;;;;;;5003288;28;20025;-75
2022/12/30 08:19:42;;;;;;;6.55;1.77;;;;;;;;;;4996638;28;20030;-72
2022/12/30 08:22:08;;;;;;;9.30;2.72;;;;;;;;;;5001110;28;20531;-73
2022/12/30 08:24:34;;;;;;;7.55;1.80;;;;;;;;;;5006159;28;20022;-72
2022/12/30 08:27:00;;;;;;;7.82;1.77;;;;;;;;;;4983936;28;20120;-71
2022/12/30 08:29:26;;;;;;;6.47;1.45;;;;;;;;;;4997999;28;20026;-74
2022/12/30 08:31:52;;;;;;;12.00;2.03;;;;;;;;;;5008756;28;20044;-74
2022/12/30 08:34:18;;;;;;;9.77;1.73;;;;;;;;;;4997172;28;20045;-73
2022/12/30 08:36:45;;;;;;;7.03;1.80;;;;;;;;;;4986704;28;20021;-76
2022/12/30 08:39:11;;;;;;;10.38;2.38;;;;;;;;;;4985484;28;20022;-73
2022/12/30 08:41:39;;;;;;;6.85;2.47;;;;;;;;;;4998673;28;20026;-73
2022/12/30 08:44:05;;;;;;;6.65;1.63;;;;;;;;;;5013341;28;20037;-73
2022/12/30 08:46:32;;;;;;;7.18;2.35;;;;;;;;;;4989367;28;20389;-74
2022/12/30 08:48:58;;;;;;;8.35;2.00;;;;;;;;;;4995017;28;20030;-73
2022/12/30 08:51:24;;;;;;;9.38;2.00;;;;;;;;;;5014230;28;20108;-73
2022/12/30 08:53:50;;;;;;;9.85;1.85;;;;;;;;;;5003699;28;20458;-75
2022/12/30 08:56:21;;;;;;;9.93;2.38;;;;;;;;;;5004833;28;20018;-73
2022/12/30 08:58:47;;;;;;;9.05;2.47;;;;;;;;;;5003065;28;20097;-74
2022/12/30 09:01:15;;;;;;;7.47;2.47;;;;;;;;;;4985524;28;20057;-73
2022/12/30 09:03:41;;;;;;;6.57;1.88;;;;;;;;;;4996691;28;20110;-73
2022/12/30 09:06:07;;;;;;;8.25;2.28;;;;;;;;;;5007937;28;20105;-73
2022/12/30 09:08:34;;;;;;;8.50;2.05;;;;;;;;;;4996805;28;20030;-74
2022/12/30 09:11:03;;;;;;;10.15;2.40;;;;;;;;;;5001349;28;20034;-74
2022/12/30 09:13:30;;;;;;;5.28;1.55;;;;;;;;;;5005372;28;20033;-74
2022/12/30 09:15:56;;;;;;;9.10;2.17;;;;;;;;;;5009370;28;20022;-71
2022/12/30 09:18:23;;;;;;;6.35;1.65;;;;;;;;;;4995312;28;20018;-72
2022/12/30 09:20:49;;;;;;;8.68;2.17;;;;;;;;;;5002747;28;20400;-72
2022/12/30 09:23:15;;;;;;;8.52;2.25;;;;;;;;;;5003933;28;20025;-74
2022/12/30 09:25:41;;;;;;;7.72;2.13;;;;;;;;;;4998251;28;20034;-76
2022/12/30 09:28:07;;;;;;;7.90;2.67;;;;;;;;;;5009959;28;20392;-72
2022/12/30 09:30:33;;;;;;;7.55;2.30;;;;;;;;;;4999182;28;20443;-73
2022/12/30 09:32:59;;;;;;;7.53;2.45;;;;;;;;;;5003052;28;20027;-74
2022/12/30 09:35:25;;;;;;;8.48;2.10;;;;;;;;;;5005680;28;20511;-74
2022/12/30 09:37:51;;;;;;;7.68;2.20;;;;;;;;;;5008588;28;20030;-75
2022/12/30 09:40:19;;;;;;;6.53;1.90;;;;;;;;;;5009357;28;20073;-76
2022/12/30 09:45:50;;;;;;;7.70;2.33;;;;;;;;;;5006346;28;20040;-75
2022/12/30 09:48:27;;;;;;;5.00;2.13;;;;;;;;;;4988139;28;20028;-75
2022/12/30 09:50:59;;;;;;;7.18;1.80;;;;;;;;;;5010823;28;20507;-72
2022/12/30 09:53:40;;;;;;;10.65;2.30;;;;;;;;;;5012615;28;20032;-73
2022/12/30 09:56:17;;;;;;;9.48;2.42;;;;;;;;;;4984745;28;20087;-73
2022/12/30 09:58:45;;;;;;;10.18;2.42;;;;;;;;;;5012179;28;20022;-74
2022/12/30 10:01:24;;;;;;;7.43;2.53;;;;;;;;;;5008658;28;20041;-74
2022/12/30 10:03:57;;;;;;;8.02;2.15;;;;;;;;;;5001043;28;20485;-75
2022/12/30 10:06:27;;;;;;;11.68;2.35;;;;;;;;;;5012848;28;20086;-72
2022/12/30 10:08:59;;;;;;;10.32;2.42;;;;;;;;;;5006066;28;20037;-75
2022/12/30 10:11:34;;;;;;;8.52;2.33;;;;;;;;;;5000138;28;20156;-72
2022/12/30 10:14:03;;;;;;;8.18;2.30;;;;;;;;;;5009224;28;20026;-72
2022/12/30 10:16:32;;;;;;;9.60;2.15;;;;;;;;;;5007067;28;20026;-75
2022/12/30 10:19:04;;;;;;;9.27;2.28;;;;;;;;;;5016800;28;20030;-76
2022/12/30 10:21:49;;;;;;;9.48;2.00;;;;;;;;;;5021140;28;20046;-76
2022/12/30 10:24:15;;;;;;;8.52;2.30;;;;;;;;;;4986797;28;20045;-75
2022/12/30 10:26:43;;;;;;;7.82;2.00;;;;;;;;;;4990173;28;20026;-75
2022/12/30 10:29:15;;;;;;;9.45;1.80;;;;;;;;;;5002710;28;20022;-75
2022/12/30 10:31:43;;;;;;;7.30;1.73;;;;;;;;;;5009326;28;20033;-75
2022/12/30 10:34:13;;;;;;;6.20;1.77;;;;;;;;;;4997735;28;20030;-73
2022/12/30 10:36:58;;;;;;;8.50;2.15;;;;;;;;;;5007269;28;20026;-75
2022/12/30 10:39:25;;;;;;;7.28;2.58;;;;;;;;;;5006960;28;20022;-75
2022/12/30 10:41:58;;;;;;;12.25;2.65;;;;;;;;;;5002067;28;20556;-74
2022/12/30 10:44:44;;;;;;;12.52;2.60;;;;;;;;;;5013965;28;20034;-74
2022/12/30 10:47:30;;;;;;;6.15;1.80;;;;;;;;;;4977568;28;20034;-76
2022/12/30 10:49:56;;;;;;;10.38;2.20;;;;;;;;;;5010361;28;20026;-73
2022/12/30 10:52:22;;;;;;;6.78;1.73;;;;;;;;;;4980704;28;20108;-74
2022/12/30 10:54:49;;;;;;;9.05;2.38;;;;;;;;;;5005474;28;20030;-73
2022/12/30 10:57:16;;;;;;;5.80;1.98;;;;;;;;;;4993560;28;20022;-70
2022/12/30 10:59:43;;;;;;;6.38;1.75;;;;;;;;;;5009052;28;20082;-71
2022/12/30 11:02:16;;;;;;;6.28;1.60;;;;;;;;;;4997082;28;20384;-74
2022/12/30 11:04:43;;;;;;;7.68;1.55;;;;;;;;;;5006129;28;20089;-71
2022/12/30 11:07:10;;;;;;;8.98;1.80;;;;;;;;;;5003654;28;20034;-73
2022/12/30 11:09:37;;;;;;;5.93;1.60;;;;;;;;;;4998345;28;20022;-73
2022/12/30 11:14:56;;;;;;;6.10;2.05;;;;;;;;;;5001833;28;20037;-74
2022/12/30 11:17:24;;;;;;;8.10;2.22;;;;;;;;;;4981983;28;20652;-71
2022/12/30 11:19:52;;;;;;;8.77;1.60;;;;;;;;;;5009312;28;20030;-73
2022/12/30 11:22:18;;;;;;;6.40;2.08;;;;;;;;;;4992520;28;20038;-75
2022/12/30 11:24:45;;;;;;;4.45;1.95;;;;;;;;;;5000174;28;20033;-76
2022/12/30 11:27:11;;;;;;;6.35;1.65;;;;;;;;;;5000715;28;20515;-74
2022/12/30 11:29:37;;;;;;;5.28;1.63;;;;;;;;;;5007415;28;20377;-73
2022/12/30 11:32:10;;;;;;;4.72;1.23;;;;;;;;;;4995867;28;20029;-74
2022/12/30 11:34:40;;;;;;;5.47;1.50;;;;;;;;;;5005694;28;20026;-74
2022/12/30 11:37:26;;;;;;;5.20;1.33;;;;;;;;;;5001993;28;20468;-73
2022/12/30 11:39:53;;;;;;;8.40;1.48;;;;;;;;;;4996307;28;20022;-73
2022/12/30 11:42:28;;;;;;;4.13;1.63;;;;;;;;;;5001137;28;20437;-73
2022/12/30 11:45:12;;;;;;;3.40;1.58;;;;;;;;;;5002621;28;20157;-73
2022/12/30 11:47:43;;;;;;;6.32;1.83;;;;;;;;;;5005385;28;20442;-73
2022/12/30 11:50:15;;;;;;;3.33;1.33;;;;;;;;;;4993562;28;20030;-73
2022/12/30 11:52:41;;;;;;;6.55;2.00;;;;;;;;;;5000018;28;20034;-74
2022/12/30 11:55:18;;;;;;;8.10;2.00;;;;;;;;;;5006269;28;20026;-74
2022/12/30 11:57:48;;;;;;;5.45;1.50;;;;;;;;;;5007372;28;20018;-74
2022/12/30 12:00:14;;;;;;;3.78;1.83;;;;;;;;;;4975314;28;20022;-75
2022/12/30 12:02:50;;;;;;;1.88;1.10;;;;;;;;;;4992957;28;20459;-73
2022/12/30 12:05:22;;;;;;;3.08;1.30;;;;;;;;;;5003765;28;20483;-74
2022/12/30 12:07:49;;;;;;;4.63;1.20;;;;;;;;;;4995728;28;20405;-72
2022/12/30 12:10:19;;;;;;;3.75;1.63;;;;;;;;;;4962544;28;20029;-74
2022/12/30 12:12:51;;;;;;;6.45;1.95;;;;;;;;;;5004593;28;20077;-76
2022/12/30 12:15:20;;;;;;;8.02;1.98;;;;;;;;;;5003972;28;20109;-74
2022/12/30 12:17:55;;;;;;;4.65;1.33;;;;;;;;;;4996141;28;20457;-72
2022/12/30 12:23:00;;;;;;;6.63;2.05;;;;;;;;;;5001396;28;20050;-75
2022/12/30 12:25:29;;;;;;;5.95;1.25;;;;;;;;;;4999352;28;20030;-77
2022/12/30 12:27:55;;;;;;;3.15;1.73;;;;;;;;;;5007362;28;20032;-77
2022/12/30 12:30:22;;;;;;;6.57;1.80;;;;;;;;;;4996650;28;20022;-77
2022/12/30 12:32:57;;;;;;;7.40;1.67;;;;;;;;;;5003716;28;20037;-77
2022/12/30 12:35:26;;;;;;;8.65;2.55;;;;;;;;;;5004888;28;20105;-78
2022/12/30 12:37:58;;;;;;;6.32;2.30;;;;;;;;;;4994467;28;20030;-77
2022/12/30 12:40:33;;;;;;;9.77;1.95;;;;;;;;;;5006593;28;20018;-77
2022/12/30 12:43:17;;;;;;;6.10;2.47;;;;;;;;;;4991347;28;20025;-77
2022/12/30 12:45:51;;;;;;;4.50;1.83;;;;;;;;;;4996409;28;20022;-76
2022/12/30 12:48:20;;;;;;;6.22;1.80;;;;;;;;;;4961825;28;20022;-76
2022/12/30 12:50:52;;;;;;;5.40;1.60;;;;;;;;;;5003441;28;20073;-77
2022/12/30 12:53:25;;;;;;;6.75;1.52;;;;;;;;;;5003847;28;20033;-77
2022/12/30 12:55:51;;;;;;;9.55;2.17;;;;;;;;;;4995378;28;20023;-78
2022/12/30 12:58:29;;;;;;;6.82;1.95;;;;;;;;;;5006958;28;20026;-78
2022/12/30 13:01:04;;;;;;;4.95;1.80;;;;;;;;;;4983627;28;20029;-78
2022/12/30 13:03:33;;;;;;;8.48;2.35;;;;;;;;;;4980435;28;20022;-77
2022/12/30 13:06:06;;;;;;;5.25;1.90;;;;;;;;;;4990831;28;20026;-77
2022/12/30 13:08:40;;;;;;;9.48;2.10;;;;;;;;;;4997023;28;20254;-78
2022/12/30 13:11:25;;;;;;;5.75;2.10;;;;;;;;;;5002676;28;20030;-77
2022/12/30 13:14:09;;;;;;;5.78;2.58;;;;;;;;;;5012001;28;20018;-77
2022/12/30 13:16:38;;;;;;;8.65;2.45;;;;;;;;;;5001281;28;20049;-78
2022/12/30 13:19:05;;;;;;;5.88;1.95;;;;;;;;;;5004905;28;20058;-78
2022/12/30 13:21:31;;;;;;;9.32;2.13;;;;;;;;;;5002728;28;20042;-76
2022/12/30 13:24:00;;;;;;;9.75;2.75;;;;;;;;;;5011868;28;20108;-77
2022/12/30 13:26:26;;;;;;;6.20;2.25;;;;;;;;;;5000240;28;20021;-77
2022/12/30 13:28:54;;;;;;;9.23;2.38;;;;;;;;;;5006076;28;20022;-77
2022/12/30 13:31:20;;;;;;;6.78;2.60;;;;;;;;;;5007559;28;20488;-77
2022/12/30 13:33:49;;;;;;;6.50;2.47;;;;;;;;;;4981807;28;20504;-77
2022/12/30 13:36:19;;;;;;;8.45;3.25;;;;;;;;;;4984130;28;20053;-77
2022/12/30 13:38:45;;;;;;;6.45;2.90;;;;;;;;;;5007827;28;20109;-77
2022/12/30 13:41:24;;;;;;;5.70;2.30;;;;;;;;;;5002756;28;20161;-77
2022/12/30 13:43:53;;;;;;;9.75;3.53;;;;;;;;;;5013375;28;20395;-77
2022/12/30 13:46:21;;;;;;;10.27;3.85;;;;;;;;;;4984317;28;20116;-77
2022/12/30 13:48:57;;;;;;;9.30;3.80;;;;;;;;;;5007616;28;20058;-76
2022/12/30 13:51:24;;;;;;;9.43;3.58;;;;;;;;;;5008425;28;20093;-76
2022/12/30 13:53:53;;;;;;;5.40;3.38;;;;;;;;;;4982069;28;20113;-76
2022/12/30 13:56:34;;;;;;;8.45;3.28;;;;;;;;;;5003352;28;20504;-76
2022/12/30 13:59:00;;;;;;;10.75;2.80;;;;;;;;;;4987357;28;20026;-77
2022/12/30 14:01:26;;;;;;;12.70;2.78;;;;;;;;;;4990488;28;20108;-78
2022/12/30 14:04:15;;;;;;;7.93;3.17;;;;;;;;;;4998070;28;20396;-78
2022/12/30 14:06:45;;;;;;;7.97;3.20;;;;;;;;;;5007727;28;20035;-77
2022/12/30 14:09:17;;;;;;;10.15;3.55;;;;;;;;;;4988210;28;20061;-77
2022/12/30 14:12:02;;;;;;;9.40;2.92;;;;;;;;;;4999079;28;20026;-77
2022/12/30 14:14:29;;;;;;;6.80;2.88;;;;;;;;;;4985426;28;20044;-77
2022/12/30 14:17:15;;;;;;;6.45;3.00;;;;;;;;;;5005440;28;20027;-78
2022/12/30 14:19:50;;;;;;;8.50;2.85;;;;;;;;;;5009455;28;20037;-77
2022/12/30 14:22:35;;;;;;;5.68;2.83;;;;;;;;;;4973987;28;20057;-77
2022/12/30 14:25:03;;;;;;;6.75;2.55;;;;;;;;;;5005734;28;20437;-76
2022/12/30 14:27:31;;;;;;;9.88;2.85;;;;;;;;;;4989448;28;20033;-77
2022/12/30 14:30:16;;;;;;;5.10;2.80;;;;;;;;;;4998085;28;20025;-77
2022/12/30 14:32:43;;;;;;;7.28;3.05;;;;;;;;;;4989881;28;20510;-78
2022/12/30 14:35:15;;;;;;;7.03;3.45;;;;;;;;;;4988509;28;20029;-77
2022/12/30 14:37:41;;;;;;;18.13;5.68;;;;;;;;;;4998274;28;20018;-77
2022/12/30 14:40:25;;;;;;;10.48;5.00;;;;;;;;;;4992511;28;20145;-76
2022/12/30 14:42:53;;;;;;;13.48;5.07;;;;;;;;;;4991774;28;20060;-77
2022/12/30 14:45:22;;;;;;;16.02;10.15;;;;;;;;;;5001382;28;20374;-77
2022/12/30 14:47:48;;;;;;;19.13;11.40;;;;;;;;;;5009500;28;20029;-77
2022/12/30 14:50:15;;;;;;;26.42;14.30;;;;;;;;;;4997318;28;20022;-76
2022/12/30 14:52:49;;;;;;;17.00;8.02;;;;;;;;;;5006266;28;20421;-77
2022/12/30 14:55:20;;;;;;;16.35;8.02;;;;;;;;;;4998615;28;20045;-77
2022/12/30 14:57:46;;;;;;;11.70;4.30;;;;;;;;;;5008904;28;20068;-77
2022/12/30 15:00:12;;;;;;;19.00;7.03;;;;;;;;;;4990118;28;20026;-75
2022/12/30 15:02:47;;;;;;;13.68;5.05;;;;;;;;;;4992181;28;20323;-76
2022/12/30 15:05:21;;;;;;;10.70;3.28;;;;;;;;;;4974708;28;20142;-75
2022/12/30 15:07:49;;;;;;;13.73;5.35;;;;;;;;;;4992566;28;20102;-75
2022/12/30 15:10:24;;;;;;;7.07;3.05;;;;;;;;;;4992101;28;20057;-77
2022/12/30 15:12:53;;;;;;;10.30;3.80;;;;;;;;;;4994347;28;20039;-76
2022/12/30 15:15:25;;;;;;;10.27;4.03;;;;;;;;;;4993077;28;20027;-76
2022/12/30 15:17:57;;;;;;;7.95;3.20;;;;;;;;;;4994054;28;20106;-77
2022/12/30 15:20:26;;;;;;;11.40;2.88;;;;;;;;;;4994571;28;20026;-76
2022/12/30 15:22:52;;;;;;;13.48;3.58;;;;;;;;;;4994221;28;20058;-76
2022/12/30 15:25:20;;;;;;;8.77;3.30;;;;;;;;;;4995772;28;20036;-75
2022/12/30 15:27:51;;;;;;;8.90;3.20;;;;;;;;;;4994007;28;20109;-75
2022/12/30 15:30:17;;;;;;;7.13;3.65;;;;;;;;;;4994135;28;20038;-75
2022/12/30 15:32:44;;;;;;;9.23;2.80;;;;;;;;;;4992948;28;20504;-75
2022/12/30 15:35:16;;;;;;;9.65;2.45;;;;;;;;;;4974379;28;20030;-75
2022/12/30 15:37:46;;;;;;;4.85;2.28;;;;;;;;;;4992536;28;20068;-75
2022/12/30 15:40:22;;;;;;;5.15;2.80;;;;;;;;;;4975506;28;20200;-75
2022/12/30 15:42:51;;;;;;;5.82;2.33;;;;;;;;;;4994066;28;20026;-75
2022/12/30 15:45:37;;;;;;;6.00;2.38;;;;;;;;;;4995081;28;20053;-74
2022/12/30 15:48:19;;;;;;;8.57;3.13;;;;;;;;;;4977595;28;20022;-75
2022/12/30 15:50:46;;;;;;;19.42;3.25;;;;;;;;;;4996311;28;20129;-75